Aéroclub Castres-Mazamet
ACCUEIL




METAR
LFCK 270030Z AUTO 12004KT CAVOK 15/13 Q1020



Liens utiles


F.F.A
Météo France
OLIVIA
SIA
D.G.A.C

Bienvenue à l'aéroclub de Castres-Mazamet


.


               


Actualités

 Championnats de France de voltige - Castres 20-28 septembre   
Publié le 15-Aug-2021    
Nous accueillerons sur la plateforme les championnats de France de voltige du 20 au 28 septembre prochain (les premiers appareils devraient arriver vers le 18 septembre). Plus d'informations à la rentrée !


 Assemblée Générale   
Publié le 30-Juin-2021    
L'assemblée générale du club a eu lieu le vendredi 25 juin 2021 à l'hôtel Mercure.


 Nouveaux pilotes   
Publié le 05-May-2021    
2 nouveaux pilotes viennent de réussir leurs examens. Il s'agit de >> Adrien Tafanel (ABL+LAPL+PPL) et >> Robin Vidal (PPL) Félicitations à tous les deux !


 Séminaire Sécurité des Vols du pilote privé Avion & ULM Edition 2021   
Publié le 14-Apr-2021    
Bonjour, Co-organisé par l'AC-ENAC et l'ACAT, ce séminaire s'adresse aux élèves, aux pilotes, aux instructeurs et encadrants des aéroclubs. >>>Renseignements auprès du Bureau de l'Aéroclub. Inscriptions: seminaire.SV.2021@gmail.com


Voir plus